sensor_id;sensor_type;location;lat;lon;timestamp;pressure;altitude;pressure_sealevel;temperature;humidity
15405;BME280;7801;48.124;11.590;2023-04-04T00:00:21;96062.50;;;2.42;61.03
15405;BME280;7801;48.124;11.590;2023-04-04T00:02:47;96067.00;;;2.35;60.40
15405;BME280;7801;48.124;11.590;2023-04-04T00:05:13;96054.94;;;2.34;60.84
15405;BME280;7801;48.124;11.590;2023-04-04T00:07:38;96052.94;;;2.48;60.79
15405;BME280;7801;48.124;11.590;2023-04-04T00:10:04;96054.22;;;2.57;60.48
15405;BME280;7801;48.124;11.590;2023-04-04T00:12:30;96058.28;;;2.41;60.62
15405;BME280;7801;48.124;11.590;2023-04-04T00:14:55;96048.69;;;2.35;60.47
15405;BME280;7801;48.124;11.590;2023-04-04T00:17:21;96053.13;;;2.34;60.81
15405;BME280;7801;48.124;11.590;2023-04-04T00:19:46;96044.81;;;2.26;60.79
15405;BME280;7801;48.124;11.590;2023-04-04T00:22:12;96045.81;;;2.25;61.11
15405;BME280;7801;48.124;11.590;2023-04-04T00:24:39;96046.63;;;2.25;61.00
15405;BME280;7801;48.124;11.590;2023-04-04T00:27:05;96044.03;;;2.37;61.08
15405;BME280;7801;48.124;11.590;2023-04-04T00:29:30;96043.94;;;2.14;61.24
15405;BME280;7801;48.124;11.590;2023-04-04T00:31:58;96037.19;;;2.24;61.67
15405;BME280;7801;48.124;11.590;2023-04-04T00:34:24;96034.72;;;2.41;60.81
15405;BME280;7801;48.124;11.590;2023-04-04T00:36:49;96033.25;;;2.15;60.98
15405;BME280;7801;48.124;11.590;2023-04-04T00:39:14;96024.63;;;2.15;61.46
15405;BME280;7801;48.124;11.590;2023-04-04T00:41:40;96029.84;;;2.15;61.27
15405;BME280;7801;48.124;11.590;2023-04-04T00:44:05;96021.41;;;2.13;61.79
15405;BME280;7801;48.124;11.590;2023-04-04T00:46:31;96022.78;;;2.03;62.25
15405;BME280;7801;48.124;11.590;2023-04-04T00:48:57;96020.41;;;2.14;61.97
15405;BME280;7801;48.124;11.590;2023-04-04T00:51:23;96018.06;;;2.24;61.83
15405;BME280;7801;48.124;11.590;2023-04-04T00:53:49;96020.97;;;2.16;61.53
15405;BME280;7801;48.124;11.590;2023-04-04T00:56:15;96015.00;;;2.27;61.60
15405;BME280;7801;48.124;11.590;2023-04-04T00:58:44;96011.81;;;2.25;61.39
15405;BME280;7801;48.124;11.590;2023-04-04T01:01:10;96006.56;;;2.25;61.61
15405;BME280;7801;48.124;11.590;2023-04-04T01:03:36;96007.50;;;2.42;61.00
15405;BME280;7801;48.124;11.590;2023-04-04T01:06:02;96007.94;;;2.27;61.12
15405;BME280;7801;48.124;11.590;2023-04-04T01:08:28;96010.22;;;2.24;61.40
15405;BME280;7801;48.124;11.590;2023-04-04T01:10:54;96008.03;;;2.21;61.07
15405;BME280;7801;48.124;11.590;2023-04-04T01:13:20;96002.53;;;2.11;61.55
15405;BME280;7801;48.124;11.590;2023-04-04T01:15:46;96002.62;;;2.04;62.21
15405;BME280;7801;48.124;11.590;2023-04-04T01:18:14;96003.22;;;2.06;62.21
15405;BME280;7801;48.124;11.590;2023-04-04T01:20:49;96002.72;;;1.97;61.79
15405;BME280;7801;48.124;11.590;2023-04-04T01:23:16;95997.47;;;1.67;62.65
15405;BME280;7801;48.124;11.590;2023-04-04T01:25:42;95997.19;;;1.57;63.33
15405;BME280;7801;48.124;11.590;2023-04-04T01:28:08;95993.25;;;1.85;63.21
15405;BME280;7801;48.124;11.590;2023-04-04T01:30:35;95992.25;;;1.97;62.73
15405;BME280;7801;48.124;11.590;2023-04-04T01:35:39;95990.09;;;1.94;62.25
15405;BME280;7801;48.124;11.590;2023-04-04T01:41:02;95987.28;;;2.08;62.68
15405;BME280;7801;48.124;11.590;2023-04-04T01:43:31;95988.25;;;1.95;62.78
15405;BME280;7801;48.124;11.590;2023-04-04T01:45:58;95984.97;;;1.99;62.55
15405;BME280;7801;48.124;11.590;2023-04-04T01:48:23;95982.28;;;1.76;63.49
15405;BME280;7801;48.124;11.590;2023-04-04T01:50:49;95982.13;;;1.71;63.61
15405;BME280;7801;48.124;11.590;2023-04-04T01:53:14;95983.72;;;1.72;64.17
15405;BME280;7801;48.124;11.590;2023-04-04T01:55:40;95980.78;;;1.50;64.70
15405;BME280;7801;48.124;11.590;2023-04-04T01:58:05;95978.50;;;1.72;64.53
15405;BME280;7801;48.124;11.590;2023-04-04T02:00:30;95980.69;;;1.75;64.40
15405;BME280;7801;48.124;11.590;2023-04-04T02:02:55;95982.69;;;1.61;64.41
15405;BME280;7801;48.124;11.590;2023-04-04T02:05:21;95980.28;;;1.60;64.75
15405;BME280;7801;48.124;11.590;2023-04-04T02:07:49;95982.56;;;1.38;65.35
15405;BME280;7801;48.124;11.590;2023-04-04T02:10:15;95978.41;;;1.49;65.38
15405;BME280;7801;48.124;11.590;2023-04-04T02:12:40;95986.81;;;1.51;65.45
15405;BME280;7801;48.124;11.590;2023-04-04T02:15:06;95978.53;;;1.54;65.96
15405;BME280;7801;48.124;11.590;2023-04-04T02:17:32;95980.28;;;1.60;65.90
15405;BME280;7801;48.124;11.590;2023-04-04T02:19:57;95985.66;;;1.47;65.83
15405;BME280;7801;48.124;11.590;2023-04-04T02:22:22;95983.03;;;1.47;66.01
15405;BME280;7801;48.124;11.590;2023-04-04T02:24:47;95987.69;;;1.63;65.96
15405;BME280;7801;48.124;11.590;2023-04-04T02:27:13;95977.44;;;1.61;65.63
15405;BME280;7801;48.124;11.590;2023-04-04T02:29:38;95975.78;;;1.49;66.16
15405;BME280;7801;48.124;11.590;2023-04-04T02:32:03;95975.94;;;1.54;66.18
15405;BME280;7801;48.124;11.590;2023-04-04T02:34:29;95970.50;;;1.37;66.01
15405;BME280;7801;48.124;11.590;2023-04-04T02:36:54;95969.97;;;1.47;66.53
15405;BME280;7801;48.124;11.590;2023-04-04T02:39:19;95967.78;;;1.62;66.09
15405;BME280;7801;48.124;11.590;2023-04-04T02:41:45;95966.44;;;1.71;65.60
15405;BME280;7801;48.124;11.590;2023-04-04T02:44:11;95965.62;;;1.59;66.19
15405;BME280;7801;48.124;11.590;2023-04-04T02:46:36;95972.03;;;1.45;66.52
15405;BME280;7801;48.124;11.590;2023-04-04T02:49:01;95967.00;;;1.61;66.20
15405;BME280;7801;48.124;11.590;2023-04-04T02:51:28;95965.53;;;1.65;65.81
15405;BME280;7801;48.124;11.590;2023-04-04T02:53:53;95975.63;;;1.62;66.30
15405;BME280;7801;48.124;11.590;2023-04-04T02:56:19;95967.78;;;1.62;66.25
15405;BME280;7801;48.124;11.590;2023-04-04T02:58:44;95966.34;;;1.66;66.22
15405;BME280;7801;48.124;11.590;2023-04-04T03:01:10;95966.44;;;1.41;67.12
15405;BME280;7801;48.124;11.590;2023-04-04T03:03:38;95971.75;;;1.34;67.66
15405;BME280;7801;48.124;11.590;2023-04-04T03:06:03;95966.50;;;1.34;66.99
15405;BME280;7801;48.124;11.590;2023-04-04T03:08:28;95963.47;;;1.19;67.80
15405;BME280;7801;48.124;11.590;2023-04-04T03:10:54;95957.00;;;1.40;67.31
15405;BME280;7801;48.124;11.590;2023-04-04T03:13:19;95962.84;;;1.24;67.03
15405;BME280;7801;48.124;11.590;2023-04-04T03:15:45;95962.72;;;1.30;67.68
15405;BME280;7801;48.124;11.590;2023-04-04T03:18:11;95959.69;;;1.33;67.30
15405;BME280;7801;48.124;11.590;2023-04-04T03:20:36;95953.87;;;1.13;67.81
15405;BME280;7801;48.124;11.590;2023-04-04T03:23:01;95959.69;;;1.15;67.71
15405;BME280;7801;48.124;11.590;2023-04-04T03:25:27;95958.38;;;1.06;67.92
15405;BME280;7801;48.124;11.590;2023-04-04T03:27:52;95964.19;;;1.08;68.12
15405;BME280;7801;48.124;11.590;2023-04-04T03:30:18;95960.87;;;1.01;67.78
15405;BME280;7801;48.124;11.590;2023-04-04T03:32:43;95952.81;;;1.02;68.46
15405;BME280;7801;48.124;11.590;2023-04-04T03:35:08;95960.06;;;1.00;68.47
15405;BME280;7801;48.124;11.590;2023-04-04T03:37:34;95956.56;;;0.88;68.35
15405;BME280;7801;48.124;11.590;2023-04-04T03:40:00;95952.22;;;1.00;68.86
15405;BME280;7801;48.124;11.590;2023-04-04T03:42:25;95953.31;;;1.11;68.53
15405;BME280;7801;48.124;11.590;2023-04-04T03:44:51;95961.22;;;1.04;68.76
15405;BME280;7801;48.124;11.590;2023-04-04T03:47:17;95962.97;;;0.92;68.88
15405;BME280;7801;48.124;11.590;2023-04-04T03:49:43;95959.25;;;0.82;69.03
15405;BME280;7801;48.124;11.590;2023-04-04T03:52:08;95965.09;;;0.59;69.96
15405;BME280;7801;48.124;11.590;2023-04-04T03:54:33;95973.81;;;0.71;69.75
15405;BME280;7801;48.124;11.590;2023-04-04T03:56:59;95973.44;;;0.43;70.88
15405;BME280;7801;48.124;11.590;2023-04-04T03:59:24;95967.50;;;0.36;71.41
15405;BME280;7801;48.124;11.590;2023-04-04T04:01:50;95979.97;;;0.33;71.76
15405;BME280;7801;48.124;11.590;2023-04-04T04:04:15;95979.16;;;0.33;71.73
15405;BME280;7801;48.124;11.590;2023-04-04T04:06:41;95987.28;;;0.43;71.87
15405;BME280;7801;48.124;11.590;2023-04-04T04:09:06;95977.22;;;0.47;71.30
15405;BME280;7801;48.124;11.590;2023-04-04T04:11:32;95974.56;;;0.53;71.28
15405;BME280;7801;48.124;11.590;2023-04-04T04:13:57;95980.84;;;0.71;70.53
15405;BME280;7801;48.124;11.590;2023-04-04T04:16:24;95990.44;;;0.77;70.43
15405;BME280;7801;48.124;11.590;2023-04-04T04:18:50;95982.56;;;0.58;71.18
15405;BME280;7801;48.124;11.590;2023-04-04T04:21:43;95979.22;;;0.51;71.17
15405;BME280;7801;48.124;11.590;2023-04-04T04:24:09;95975.88;;;0.62;71.11
15405;BME280;7801;48.124;11.590;2023-04-04T04:26:34;95973.22;;;0.69;70.65
15405;BME280;7801;48.124;11.590;2023-04-04T04:29:00;95976.94;;;0.61;70.40
15405;BME280;7801;48.124;11.590;2023-04-04T04:31:25;95992.34;;;0.63;70.82
15405;BME280;7801;48.124;11.590;2023-04-04T04:33:50;95993.84;;;0.52;70.99
15405;BME280;7801;48.124;11.590;2023-04-04T04:36:16;95990.28;;;0.47;71.33
15405;BME280;7801;48.124;11.590;2023-04-04T04:38:41;95987.91;;;0.63;70.92
15405;BME280;7801;48.124;11.590;2023-04-04T04:41:06;95991.19;;;0.34;71.50
15405;BME280;7801;48.124;11.590;2023-04-04T04:43:32;95991.06;;;0.47;71.71
15405;BME280;7801;48.124;11.590;2023-04-04T04:45:57;95995.66;;;0.27;71.64
15405;BME280;7801;48.124;11.590;2023-04-04T04:48:23;95993.22;;;0.32;72.22
15405;BME280;7801;48.124;11.590;2023-04-04T04:50:48;95988.78;;;0.32;72.04
15405;BME280;7801;48.124;11.590;2023-04-04T04:53:13;95993.84;;;0.52;71.33
15405;BME280;7801;48.124;11.590;2023-04-04T04:55:39;95989.22;;;0.54;70.77
15405;BME280;7801;48.124;11.590;2023-04-04T04:58:04;95995.81;;;0.57;70.60
15405;BME280;7801;48.124;11.590;2023-04-04T05:00:31;95991.63;;;0.31;71.44
15405;BME280;7801;48.124;11.590;2023-04-04T05:02:57;95999.03;;;0.34;71.67
15405;BME280;7801;48.124;11.590;2023-04-04T05:05:24;95993.22;;;0.32;71.69
15405;BME280;7801;48.124;11.590;2023-04-04T05:07:50;95998.84;;;0.29;71.42
15405;BME280;7801;48.124;11.590;2023-04-04T05:10:15;95994.22;;;0.31;71.74
15405;BME280;7801;48.124;11.590;2023-04-04T05:12:44;96001.66;;;0.27;71.57
15405;BME280;7801;48.124;11.590;2023-04-04T05:15:10;95998.31;;;0.20;72.00
15405;BME280;7801;48.124;11.590;2023-04-04T05:17:36;96001.41;;;0.36;71.33
15405;BME280;7801;48.124;11.590;2023-04-04T05:20:02;96000.34;;;0.43;71.39
15405;BME280;7801;48.124;11.590;2023-04-04T05:22:27;96006.53;;;0.49;70.89
15405;BME280;7801;48.124;11.590;2023-04-04T05:24:52;96008.34;;;0.48;70.62
15405;BME280;7801;48.124;11.590;2023-04-04T05:27:18;96007.94;;;0.45;70.88
15405;BME280;7801;48.124;11.590;2023-04-04T05:29:43;96010.44;;;0.40;70.90
15405;BME280;7801;48.124;11.590;2023-04-04T05:32:10;96009.63;;;0.39;70.93
15405;BME280;7801;48.124;11.590;2023-04-04T05:34:35;96006.44;;;0.37;70.67
15405;BME280;7801;48.124;11.590;2023-04-04T05:37:01;96003.97;;;0.42;70.96
15405;BME280;7801;48.124;11.590;2023-04-04T05:39:26;96011.38;;;0.45;70.68
15405;BME280;7801;48.124;11.590;2023-04-04T05:41:51;96009.25;;;0.60;69.69
15405;BME280;7801;48.124;11.590;2023-04-04T05:44:16;96013.94;;;0.52;70.01
15405;BME280;7801;48.124;11.590;2023-04-04T05:46:42;96022.37;;;0.47;69.74
15405;BME280;7801;48.124;11.590;2023-04-04T05:49:07;96018.12;;;0.28;70.29
15405;BME280;7801;48.124;11.590;2023-04-04T05:51:32;96013.19;;;0.45;70.24
15405;BME280;7801;48.124;11.590;2023-04-04T05:53:58;96019.47;;;0.37;70.47
15405;BME280;7801;48.124;11.590;2023-04-04T05:56:23;96014.41;;;0.42;70.17
15405;BME280;7801;48.124;11.590;2023-04-04T05:58:49;96015.66;;;0.40;70.32
15405;BME280;7801;48.124;11.590;2023-04-04T06:01:15;96014.31;;;0.55;70.00
15405;BME280;7801;48.124;11.590;2023-04-04T06:03:40;96015.69;;;0.83;69.48
15405;BME280;7801;48.124;11.590;2023-04-04T06:06:06;96011.78;;;0.67;68.58
15405;BME280;7801;48.124;11.590;2023-04-04T06:08:31;96021.75;;;0.77;68.37
15405;BME280;7801;48.124;11.590;2023-04-04T06:10:56;96019.12;;;1.01;68.41
15405;BME280;7801;48.124;11.590;2023-04-04T06:13:22;96018.34;;;1.01;67.65
15405;BME280;7801;48.124;11.590;2023-04-04T06:15:47;96011.50;;;1.00;67.26
15405;BME280;7801;48.124;11.590;2023-04-04T06:18:12;96012.81;;;1.09;66.90
15405;BME280;7801;48.124;11.590;2023-04-04T06:20:38;96014.03;;;1.07;66.09
15405;BME280;7801;48.124;11.590;2023-04-04T06:23:03;96013.28;;;0.81;66.52
15405;BME280;7801;48.124;11.590;2023-04-04T06:25:30;96019.47;;;1.05;65.67
15405;BME280;7801;48.124;11.590;2023-04-04T06:27:55;96023.91;;;1.04;66.27
15405;BME280;7801;48.124;11.590;2023-04-04T06:30:21;96020.66;;;1.09;65.78
15405;BME280;7801;48.124;11.590;2023-04-04T06:32:46;96018.62;;;1.11;65.28
15405;BME280;7801;48.124;11.590;2023-04-04T06:35:11;96014.25;;;1.05;64.89
15405;BME280;7801;48.124;11.590;2023-04-04T06:37:36;96009.94;;;1.17;63.91
15405;BME280;7801;48.124;11.590;2023-04-04T06:40:02;96011.38;;;1.13;63.37
15405;BME280;7801;48.124;11.590;2023-04-04T06:42:28;96007.59;;;1.27;63.73
15405;BME280;7801;48.124;11.590;2023-04-04T06:44:53;96005.88;;;1.40;62.74
15405;BME280;7801;48.124;11.590;2023-04-04T06:47:18;96003.41;;;1.45;61.75
15405;BME280;7801;48.124;11.590;2023-04-04T06:49:45;96010.66;;;1.43;61.50
15405;BME280;7801;48.124;11.590;2023-04-04T06:52:10;96001.63;;;1.57;61.54
15405;BME280;7801;48.124;11.590;2023-04-04T06:54:36;96007.00;;;1.62;61.36
15405;BME280;7801;48.124;11.590;2023-04-04T06:57:01;96009.25;;;1.58;61.10
15405;BME280;7801;48.124;11.590;2023-04-04T06:59:27;96001.34;;;1.65;60.99
15405;BME280;7801;48.124;11.590;2023-04-04T07:01:52;96001.47;;;1.70;61.82
15405;BME280;7801;48.124;11.590;2023-04-04T07:04:18;95995.22;;;1.71;60.13
15405;BME280;7801;48.124;11.590;2023-04-04T07:06:44;95997.94;;;1.64;60.36
15405;BME280;7801;48.124;11.590;2023-04-04T07:09:09;96003.78;;;1.78;59.56
15405;BME280;7801;48.124;11.590;2023-04-04T07:11:35;95997.91;;;1.83;58.87
15405;BME280;7801;48.124;11.590;2023-04-04T07:14:00;95997.47;;;1.67;59.14
15405;BME280;7801;48.124;11.590;2023-04-04T07:16:26;96000.16;;;1.79;58.85
15405;BME280;7801;48.124;11.590;2023-04-04T07:18:52;95996.31;;;1.93;59.33
15405;BME280;7801;48.124;11.590;2023-04-04T07:21:17;96001.41;;;1.88;58.77
15405;BME280;7801;48.124;11.590;2023-04-04T07:23:44;96003.72;;;1.85;58.84
15405;BME280;7801;48.124;11.590;2023-04-04T07:26:09;96004.50;;;1.85;58.71
15405;BME280;7801;48.124;11.590;2023-04-04T07:28:35;95992.41;;;2.02;58.23
15405;BME280;7801;48.124;11.590;2023-04-04T07:31:01;95995.81;;;2.15;57.37
15405;BME280;7801;48.124;11.590;2023-04-04T07:33:27;95997.06;;;2.12;57.89
15405;BME280;7801;48.124;11.590;2023-04-04T07:35:53;95995.16;;;2.19;57.45
15405;BME280;7801;48.124;11.590;2023-04-04T07:38:18;95999.03;;;2.17;57.37
15405;BME280;7801;48.124;11.590;2023-04-04T07:40:44;95996.44;;;2.28;57.47
15405;BME280;7801;48.124;11.590;2023-04-04T07:43:09;95997.88;;;2.13;56.80
15405;BME280;7801;48.124;11.590;2023-04-04T07:45:35;95998.59;;;2.20;57.66
15405;BME280;7801;48.124;11.590;2023-04-04T07:48:01;96002.00;;;2.32;57.02
15405;BME280;7801;48.124;11.590;2023-04-04T07:50:26;95994.44;;;2.42;55.78
15405;BME280;7801;48.124;11.590;2023-04-04T07:52:52;96001.47;;;2.53;54.96
15405;BME280;7801;48.124;11.590;2023-04-04T07:55:20;95993.19;;;2.45;54.68
15405;BME280;7801;48.124;11.590;2023-04-04T07:57:49;95991.25;;;2.63;56.35
15405;BME280;7801;48.124;11.590;2023-04-04T08:00:15;95994.91;;;2.62;54.76
15405;BME280;7801;48.124;11.590;2023-04-04T08:02:42;95992.06;;;2.64;54.00
15405;BME280;7801;48.124;11.590;2023-04-04T08:05:08;95988.84;;;2.38;54.21
15405;BME280;7801;48.124;11.590;2023-04-04T08:07:33;95988.16;;;2.55;53.76
15405;BME280;7801;48.124;11.590;2023-04-04T08:09:58;95992.75;;;2.59;53.67
15405;BME280;7801;48.124;11.590;2023-04-04T08:12:24;95998.09;;;2.76;53.12
15405;BME280;7801;48.124;11.590;2023-04-04T08:14:49;95987.41;;;2.78;52.14
15405;BME280;7801;48.124;11.590;2023-04-04T08:17:15;95994.69;;;2.75;52.23
15405;BME280;7801;48.124;11.590;2023-04-04T08:19:43;95994.34;;;2.60;51.83
15405;BME280;7801;48.124;11.590;2023-04-04T08:22:09;96002.19;;;2.72;52.23
15405;BME280;7801;48.124;11.590;2023-04-04T08:24:34;95990.38;;;2.81;51.80
15405;BME280;7801;48.124;11.590;2023-04-04T08:27:00;95991.72;;;2.72;52.12
15405;BME280;7801;48.124;11.590;2023-04-04T08:29:26;95988.75;;;2.80;52.03
15405;BME280;7801;48.124;11.590;2023-04-04T08:31:53;95993.44;;;3.01;51.26
15405;BME280;7801;48.124;11.590;2023-04-04T08:34:18;95995.91;;;3.31;51.49
15405;BME280;7801;48.124;11.590;2023-04-04T08:36:45;95986.34;;;3.25;49.93
15405;BME280;7801;48.124;11.590;2023-04-04T08:39:10;96008.34;;;3.01;50.49
15405;BME280;7801;48.124;11.590;2023-04-04T08:41:36;96009.03;;;2.85;51.15
15405;BME280;7801;48.124;11.590;2023-04-04T08:44:02;95998.56;;;2.85;51.99
15405;BME280;7801;48.124;11.590;2023-04-04T08:46:29;95988.75;;;2.92;51.31
15405;BME280;7801;48.124;11.590;2023-04-04T08:48:55;96001.03;;;3.15;51.08
15405;BME280;7801;48.124;11.590;2023-04-04T08:51:21;96005.56;;;3.42;49.56
15405;BME280;7801;48.124;11.590;2023-04-04T08:53:47;95994.22;;;3.25;48.82
15405;BME280;7801;48.124;11.590;2023-04-04T08:56:13;96003.34;;;3.11;50.16
15405;BME280;7801;48.124;11.590;2023-04-04T08:58:38;96008.25;;;2.96;49.59
15405;BME280;7801;48.124;11.590;2023-04-04T09:01:04;96005.97;;;2.99;50.21
15405;BME280;7801;48.124;11.590;2023-04-04T09:03:32;96007.66;;;3.17;48.65
15405;BME280;7801;48.124;11.590;2023-04-04T09:06:00;96006.94;;;3.33;48.52
15405;BME280;7801;48.124;11.590;2023-04-04T09:08:27;95998.75;;;3.41;48.72
15405;BME280;7801;48.124;11.590;2023-04-04T09:10:53;96004.06;;;3.58;48.62
15405;BME280;7801;48.124;11.590;2023-04-04T09:13:19;96004.50;;;3.67;47.52
15405;BME280;7801;48.124;11.590;2023-04-04T09:15:46;96003.19;;;3.41;47.08
15405;BME280;7801;48.124;11.590;2023-04-04T09:18:12;95998.75;;;3.41;46.65
15405;BME280;7801;48.124;11.590;2023-04-04T09:20:42;95999.06;;;3.45;46.31
15405;BME280;7801;48.124;11.590;2023-04-04T09:23:12;96001.41;;;3.70;46.94
15405;BME280;7801;48.124;11.590;2023-04-04T09:25:44;96001.31;;;3.65;46.40
15405;BME280;7801;48.124;11.590;2023-04-04T09:28:10;95996.16;;;3.70;46.11
15405;BME280;7801;48.124;11.590;2023-04-04T09:30:36;96000.94;;;3.73;46.99
15405;BME280;7801;48.124;11.590;2023-04-04T09:33:06;96011.28;;;3.79;45.50
15405;BME280;7801;48.124;11.590;2023-04-04T09:35:35;96009.91;;;3.49;44.52
15405;BME280;7801;48.124;11.590;2023-04-04T09:38:02;96012.75;;;3.47;45.62
15405;BME280;7801;48.124;11.590;2023-04-04T09:40:28;96007.34;;;3.65;45.84
15405;BME280;7801;48.124;11.590;2023-04-04T09:42:58;96011.12;;;3.58;45.27
15405;BME280;7801;48.124;11.590;2023-04-04T09:45:24;96017.84;;;3.54;45.57
15405;BME280;7801;48.124;11.590;2023-04-04T09:47:50;96008.09;;;3.49;45.46
15405;BME280;7801;48.124;11.590;2023-04-04T09:50:24;96007.59;;;3.64;44.92
15405;BME280;7801;48.124;11.590;2023-04-04T09:52:50;96013.69;;;3.41;44.53
15405;BME280;7801;48.124;11.590;2023-04-04T09:55:16;96018.75;;;3.71;44.58
15405;BME280;7801;48.124;11.590;2023-04-04T09:57:42;96013.59;;;3.76;43.83
15405;BME280;7801;48.124;11.590;2023-04-04T10:00:10;96013.59;;;3.76;43.20
15405;BME280;7801;48.124;11.590;2023-04-04T10:02:38;96011.91;;;3.70;43.42
15405;BME280;7801;48.124;11.590;2023-04-04T10:05:10;96008.88;;;3.90;44.21
15405;BME280;7801;48.124;11.590;2023-04-04T10:07:38;96014.53;;;3.98;44.28
15405;BME280;7801;48.124;11.590;2023-04-04T10:10:07;96008.66;;;3.91;44.79
15405;BME280;7801;48.124;11.590;2023-04-04T10:12:35;96018.25;;;3.86;45.06
15405;BME280;7801;48.124;11.590;2023-04-04T10:15:01;96012.31;;;3.90;44.21
15405;BME280;7801;48.124;11.590;2023-04-04T10:17:38;96012.34;;;4.07;44.51
15405;BME280;7801;48.124;11.590;2023-04-04T10:20:05;96013.16;;;3.96;44.52
15405;BME280;7801;48.124;11.590;2023-04-04T10:22:37;96005.72;;;4.04;45.39
15405;BME280;7801;48.124;11.590;2023-04-04T10:25:06;96010.62;;;4.29;43.18
15405;BME280;7801;48.124;11.590;2023-04-04T10:27:33;96014.75;;;4.08;43.57
15405;BME280;7801;48.124;11.590;2023-04-04T10:29:58;96022.34;;;3.93;44.21
15405;BME280;7801;48.124;11.590;2023-04-04T10:32:32;96014.03;;;4.13;44.25
15405;BME280;7801;48.124;11.590;2023-04-04T10:35:06;96022.50;;;4.03;43.89
15405;BME280;7801;48.124;11.590;2023-04-04T10:37:39;96010.53;;;3.96;44.15
15405;BME280;7801;48.124;11.590;2023-04-04T10:40:09;96014.03;;;3.85;43.78
15405;BME280;7801;48.124;11.590;2023-04-04T10:42:41;96014.06;;;3.73;43.95
15405;BME280;7801;48.124;11.590;2023-04-04T10:45:08;96013.69;;;3.81;44.49
15405;BME280;7801;48.124;11.590;2023-04-04T10:47:35;96022.87;;;3.67;43.92
15405;BME280;7801;48.124;11.590;2023-04-04T10:50:02;96020.81;;;3.69;43.95
15405;BME280;7801;48.124;11.590;2023-04-04T10:52:30;96016.41;;;3.86;44.07
15405;BME280;7801;48.124;11.590;2023-04-04T10:54:59;96006.00;;;4.20;43.49
15405;BME280;7801;48.124;11.590;2023-04-04T10:57:25;96007.59;;;4.21;43.28
15405;BME280;7801;48.124;11.590;2023-04-04T11:05:25;96012.34;;;4.07;43.34
15405;BME280;7801;48.124;11.590;2023-04-04T11:08:04;96002.50;;;4.14;43.74
15405;BME280;7801;48.124;11.590;2023-04-04T11:10:32;95995.44;;;4.31;43.53
15405;BME280;7801;48.124;11.590;2023-04-04T11:13:01;95992.81;;;4.31;43.92
15405;BME280;7801;48.124;11.590;2023-04-04T11:15:53;96009.72;;;4.52;43.78
15405;BME280;7801;48.124;11.590;2023-04-04T11:21:18;95996.00;;;4.33;43.70
15405;BME280;7801;48.124;11.590;2023-04-04T11:28:50;95993.41;;;4.05;44.59
15405;BME280;7801;48.124;11.590;2023-04-04T11:34:07;95990.59;;;3.95;44.09
15405;BME280;7801;48.124;11.590;2023-04-04T11:39:24;95990.19;;;3.86;44.78
15405;BME280;7801;48.124;11.590;2023-04-04T11:44:16;95974.75;;;3.90;43.88
15405;BME280;7801;48.124;11.590;2023-04-04T11:46:44;95967.28;;;3.98;44.33
15405;BME280;7801;48.124;11.590;2023-04-04T11:49:10;95978.56;;;4.10;44.42
15405;BME280;7801;48.124;11.590;2023-04-04T11:51:37;95980.97;;;4.00;44.46
15405;BME280;7801;48.124;11.590;2023-04-04T11:54:03;95982.75;;;3.95;44.95
15405;BME280;7801;48.124;11.590;2023-04-04T11:56:34;95981.94;;;3.94;45.09
15405;BME280;7801;48.124;11.590;2023-04-04T11:59:02;95981.06;;;4.05;44.72
15405;BME280;7801;48.124;11.590;2023-04-04T12:01:28;95983.50;;;3.95;45.15
15405;BME280;7801;48.124;11.590;2023-04-04T12:03:54;95980.25;;;3.88;45.21
15405;BME280;7801;48.124;11.590;2023-04-04T12:06:19;95973.12;;;3.72;45.47
15405;BME280;7801;48.124;11.590;2023-04-04T12:08:45;95972.31;;;4.00;45.45
15405;BME280;7801;48.124;11.590;2023-04-04T12:11:14;95978.69;;;4.04;45.95
15405;BME280;7801;48.124;11.590;2023-04-04T12:13:42;95968.63;;;4.12;45.87
15405;BME280;7801;48.124;11.590;2023-04-04T12:16:09;95970.69;;;4.27;45.43
15405;BME280;7801;48.124;11.590;2023-04-04T12:18:35;95973.09;;;4.29;45.40
15405;BME280;7801;48.124;11.590;2023-04-04T12:21:01;95977.56;;;4.00;45.82
15405;BME280;7801;48.124;11.590;2023-04-04T12:23:26;95971.34;;;3.89;45.89
15405;BME280;7801;48.124;11.590;2023-04-04T12:25:54;95968.94;;;3.88;46.59
15405;BME280;7801;48.124;11.590;2023-04-04T12:28:21;95962.59;;;4.00;45.55
15405;BME280;7801;48.124;11.590;2023-04-04T12:30:48;95963.06;;;3.97;46.02
15405;BME280;7801;48.124;11.590;2023-04-04T12:33:14;95960.66;;;4.24;46.19
15405;BME280;7801;48.124;11.590;2023-04-04T12:35:39;95963.13;;;4.31;45.07
15405;BME280;7801;48.124;11.590;2023-04-04T12:38:05;95963.75;;;4.21;44.70
15405;BME280;7801;48.124;11.590;2023-04-04T12:40:36;95965.91;;;4.41;44.55
15405;BME280;7801;48.124;11.590;2023-04-04T12:43:08;95960.66;;;4.41;44.72
15405;BME280;7801;48.124;11.590;2023-04-04T12:45:39;95961.78;;;4.45;44.19
15405;BME280;7801;48.124;11.590;2023-04-04T12:48:13;95951.19;;;4.40;44.16
15405;BME280;7801;48.124;11.590;2023-04-04T12:50:58;95955.66;;;4.39;44.03
15405;BME280;7801;48.124;11.590;2023-04-04T12:53:28;95951.94;;;4.52;43.81
15405;BME280;7801;48.124;11.590;2023-04-04T12:55:55;95949.84;;;4.54;44.69
15405;BME280;7801;48.124;11.590;2023-04-04T12:58:23;95952.53;;;4.59;43.89
15405;BME280;7801;48.124;11.590;2023-04-04T13:00:50;95950.47;;;4.61;43.74
15405;BME280;7801;48.124;11.590;2023-04-04T13:03:16;95952.84;;;4.79;44.08
15405;BME280;7801;48.124;11.590;2023-04-04T13:05:46;95953.59;;;4.75;44.25
15405;BME280;7801;48.124;11.590;2023-04-04T13:08:12;95954.00;;;4.50;43.84
15405;BME280;7801;48.124;11.590;2023-04-04T13:11:00;95948.19;;;4.48;43.99
15405;BME280;7801;48.124;11.590;2023-04-04T13:16:01;95956.72;;;4.55;43.76
15405;BME280;7801;48.124;11.590;2023-04-04T13:18:35;95954.69;;;4.62;42.85
15405;BME280;7801;48.124;11.590;2023-04-04T13:21:03;95953.34;;;4.76;43.26
15405;BME280;7801;48.124;11.590;2023-04-04T13:23:28;95938.75;;;4.86;43.07
15405;BME280;7801;48.124;11.590;2023-04-04T13:25:54;95945.53;;;4.81;42.71
15405;BME280;7801;48.124;11.590;2023-04-04T13:28:19;95938.16;;;5.00;41.88
15405;BME280;7801;48.124;11.590;2023-04-04T13:30:45;95933.50;;;4.86;42.59
15405;BME280;7801;48.124;11.590;2023-04-04T13:33:16;95940.91;;;4.89;42.55
15405;BME280;7801;48.124;11.590;2023-04-04T13:35:42;95934.72;;;5.00;42.72